Terminal Aerodrome Forecast
Issued by NWS Tulsa, OK

Home | Current Version | Previous Version | Text Only | Print | Product List | Glossary On
Versions: 1 2 3 4 5 6 7 8 9 10 11 12 13 14 15 16 17 18 19 20 21
300
FTUS44 KTSA 071740
TAFFSM
TAF
KFSM 071740Z 0718/0818 08011KT P6SM BKN025
     FM072200 03010KT P6SM OVC035
      TEMPO 0722/0801 BKN025
     FM080300 36012KT P6SM OVC050
     FM080700 34011KT P6SM BKN120
     FM081400 32010KT P6SM SCT200=

USA.gov is the U.S. government's official web portal to all federal, state and local government web resources and services.